Terminal Aerodrome Forecast
Issued by NWS Shreveport, LA

Home | Current Version | Previous Version | Text Only | Print | Product List | Glossary On
Versions: 1 2 3 4 5 6 7 8 9 10 11 12 13 14 15
385
FTUS44 KSHV 252355
TAFLFK
TAF
KLFK 252355Z 2600/2624 VRB05KT P6SM -RA VCTS SCT045CB BKN060
      TEMPO 2600/2602 -TSRA BKN060CB
     FM260400 VRB03KT P6SM FEW050 BKN130 BKN250
     FM260900 15003KT P6SM BKN050
     FM261300 05004KT P6SM BKN060
      TEMPO 2613/2615 BKN030 BKN060
     FM262100 11006KT P6SM VCTS BKN060CB BKN250=

USA.gov is the U.S. government's official web portal to all federal, state and local government web resources and services.